Free0maverick — A8GH3 — position and weather

sailwx.info

Track history (hours):
 
Tides and Currents Weather Stations Pressure Air Temp Water Temp Dewpoint Dewpoint Depression Visibility Wind Speed Wind Dir Waves Ship Positions

Free0maverick

Last reported at 2018-Jan-03 03:31 UTC. Time now 2018-Jan-18 06:07 UTC.
Position N 29°26' W 094°50'.
Warning: this ship's position is 15 days out of date.

Length 169 m.

Type: Cargo ship. MMSI: 636013999.

Date/timePositionNaut miles runAvg speedWind from/ knotsBaromVisibWave heightAir tempDewpointWater temp
2018-Jan-03 03:31N 29°26' W 094°50'011.1
2018-Jan-03 03:30N 29°26' W 094°50'511.0
2018-Jan-03 03:00N 29°31' W 094°53'611.1
2018-Jan-03 02:30N 29°35' W 094°56'510.7
2018-Jan-03 02:00N 29°40' W 094°59'4 8.0
2018-Jan-03 01:30N 29°43' W 095°01'3 6.7
2018-Jan-03 01:00N 29°46' W 095°04'3 5.5
2018-Jan-03 00:28N 29°44' W 095°07'0 0.0
2018-Jan-01 12:44N 29°44' W 095°07'0 0.0
2018-Jan-01 12:01N 29°44' W 095°07'1 1.0
2018-Jan-01 11:30N 29°44' W 095°07'2 4.8
2018-Jan-01 11:01N 29°46' W 095°04'3 6.1
2018-Jan-01 10:30N 29°44' W 095°02'3 5.6
2018-Jan-01 10:01N 29°42' W 094°60'4 8.7
2018-Jan-01 09:31N 29°38' W 094°58'1111.4
2018-Jan-01 08:31N 29°28' W 094°51'610.9
2018-Jan-01 08:00N 29°23' W 094°48'  
2017-Dec-24 21:15N 27°44' W 090°31'413.7
2017-Dec-24 20:59N 27°46' W 090°28'713.6
2017-Dec-24 20:26N 27°51' W 090°22'613.6
2017-Dec-24 20:00N 27°55' W 090°17'713.5
2017-Dec-24 19:29N 28°00' W 090°11'  
Track history (hours):
 
Tides and Currents Weather Stations Pressure Air Temp Water Temp Dewpoint Dewpoint Depression Visibility Wind Speed Wind Dir Waves Ship Positions

Free0maverick

Last reported at 2018-Jan-03 03:31 UTC. Time now 2018-Jan-18 06:07 UTC.
Position N 29°26' W 094°50'.
Warning: this ship's position is 15 days out of date.

Length 169 m.

Type: Cargo ship. MMSI: 636013999.

Date/timePositionNaut miles runAvg speedWind from/ knotsBaromVisibWave heightAir tempDewpointWater temp
2018-Jan-03 03:31N 29°26' W 094°50'011.1
2018-Jan-03 03:30N 29°26' W 094°50'511.0
2018-Jan-03 03:00N 29°31' W 094°53'611.1
2018-Jan-03 02:30N 29°35' W 094°56'510.7
2018-Jan-03 02:00N 29°40' W 094°59'4 8.0
2018-Jan-03 01:30N 29°43' W 095°01'3 6.7
2018-Jan-03 01:00N 29°46' W 095°04'3 5.5
2018-Jan-03 00:28N 29°44' W 095°07'0 0.0
2018-Jan-01 12:44N 29°44' W 095°07'0 0.0
2018-Jan-01 12:01N 29°44' W 095°07'1 1.0
2018-Jan-01 11:30N 29°44' W 095°07'2 4.8
2018-Jan-01 11:01N 29°46' W 095°04'3 6.1
2018-Jan-01 10:30N 29°44' W 095°02'3 5.6
2018-Jan-01 10:01N 29°42' W 094°60'4 8.7
2018-Jan-01 09:31N 29°38' W 094°58'1111.4
2018-Jan-01 08:31N 29°28' W 094°51'610.9
2018-Jan-01 08:00N 29°23' W 094°48'  
2017-Dec-24 21:15N 27°44' W 090°31'413.7
2017-Dec-24 20:59N 27°46' W 090°28'713.6
2017-Dec-24 20:26N 27°51' W 090°22'613.6
2017-Dec-24 20:00N 27°55' W 090°17'713.5
2017-Dec-24 19:29N 28°00' W 090°11'  

Dump ship's entire track history